sensor_id;sensor_type;location;lat;lon;timestamp;P1;durP1;ratioP1;P2;durP2;ratioP2
54745;SDS011;40640;48.130;11.356;2022-12-20T00:03:39;15.10;;;7.55;;
54745;SDS011;40640;48.130;11.356;2022-12-20T00:07:42;13.52;;;6.43;;
54745;SDS011;40640;48.130;11.356;2022-12-20T00:11:44;12.32;;;5.43;;
54745;SDS011;40640;48.130;11.356;2022-12-20T00:15:47;15.63;;;7.50;;
54745;SDS011;40640;48.130;11.356;2022-12-20T00:19:51;12.27;;;6.95;;
54745;SDS011;40640;48.130;11.356;2022-12-20T00:23:54;8.88;;;5.22;;
54745;SDS011;40640;48.130;11.356;2022-12-20T00:27:58;11.65;;;5.90;;
54745;SDS011;40640;48.130;11.356;2022-12-20T00:32:01;14.45;;;5.22;;
54745;SDS011;40640;48.130;11.356;2022-12-20T00:36:06;9.70;;;5.55;;
54745;SDS011;40640;48.130;11.356;2022-12-20T00:40:09;9.10;;;4.03;;
54745;SDS011;40640;48.130;11.356;2022-12-20T00:44:12;9.45;;;5.15;;
54745;SDS011;40640;48.130;11.356;2022-12-20T00:48:15;15.38;;;4.45;;
54745;SDS011;40640;48.130;11.356;2022-12-20T00:52:20;8.95;;;5.00;;
54745;SDS011;40640;48.130;11.356;2022-12-20T00:56:23;8.15;;;4.68;;
54745;SDS011;40640;48.130;11.356;2022-12-20T01:00:28;9.45;;;5.40;;
54745;SDS011;40640;48.130;11.356;2022-12-20T01:04:31;10.95;;;5.57;;
54745;SDS011;40640;48.130;11.356;2022-12-20T01:08:36;10.95;;;5.47;;
54745;SDS011;40640;48.130;11.356;2022-12-20T01:12:38;14.63;;;5.35;;
54745;SDS011;40640;48.130;11.356;2022-12-20T01:16:42;13.25;;;5.30;;
54745;SDS011;40640;48.130;11.356;2022-12-20T01:24:52;7.55;;;4.47;;
54745;SDS011;40640;48.130;11.356;2022-12-20T01:28:55;18.52;;;5.72;;
54745;SDS011;40640;48.130;11.356;2022-12-20T01:32:58;11.52;;;4.93;;
54745;SDS011;40640;48.130;11.356;2022-12-20T01:37:01;9.52;;;5.30;;
54745;SDS011;40640;48.130;11.356;2022-12-20T01:41:05;8.63;;;5.43;;
54745;SDS011;40640;48.130;11.356;2022-12-20T01:45:12;13.98;;;5.63;;
54745;SDS011;40640;48.130;11.356;2022-12-20T01:49:23;8.55;;;5.00;;
54745;SDS011;40640;48.130;11.356;2022-12-20T01:53:29;8.30;;;4.78;;
54745;SDS011;40640;48.130;11.356;2022-12-20T01:57:36;10.77;;;5.25;;
54745;SDS011;40640;48.130;11.356;2022-12-20T02:01:42;12.00;;;5.07;;
54745;SDS011;40640;48.130;11.356;2022-12-20T02:05:46;8.40;;;4.78;;
54745;SDS011;40640;48.130;11.356;2022-12-20T02:09:49;8.75;;;5.55;;
54745;SDS011;40640;48.130;11.356;2022-12-20T02:13:56;10.00;;;5.28;;
54745;SDS011;40640;48.130;11.356;2022-12-20T02:18:12;8.93;;;5.00;;
54745;SDS011;40640;48.130;11.356;2022-12-20T02:22:22;13.90;;;5.05;;
54745;SDS011;40640;48.130;11.356;2022-12-20T02:26:36;13.60;;;5.03;;
54745;SDS011;40640;48.130;11.356;2022-12-20T02:30:49;11.45;;;5.38;;
54745;SDS011;40640;48.130;11.356;2022-12-20T02:34:56;11.70;;;5.18;;
54745;SDS011;40640;48.130;11.356;2022-12-20T02:38:59;8.75;;;4.88;;
54745;SDS011;40640;48.130;11.356;2022-12-20T02:43:03;8.48;;;4.82;;
54745;SDS011;40640;48.130;11.356;2022-12-20T02:47:32;7.75;;;5.00;;
54745;SDS011;40640;48.130;11.356;2022-12-20T02:51:38;6.45;;;4.25;;
54745;SDS011;40640;48.130;11.356;2022-12-20T02:55:44;7.38;;;4.78;;
54745;SDS011;40640;48.130;11.356;2022-12-20T02:59:54;9.13;;;4.88;;
54745;SDS011;40640;48.130;11.356;2022-12-20T03:04:06;9.43;;;4.90;;
54745;SDS011;40640;48.130;11.356;2022-12-20T03:08:12;8.52;;;4.18;;
54745;SDS011;40640;48.130;11.356;2022-12-20T03:12:14;7.85;;;4.20;;
54745;SDS011;40640;48.130;11.356;2022-12-20T03:16:18;8.10;;;5.10;;
54745;SDS011;40640;48.130;11.356;2022-12-20T03:20:22;7.38;;;4.22;;
54745;SDS011;40640;48.130;11.356;2022-12-20T03:24:25;7.22;;;4.35;;
54745;SDS011;40640;48.130;11.356;2022-12-20T03:28:29;6.97;;;4.55;;
54745;SDS011;40640;48.130;11.356;2022-12-20T03:32:32;7.35;;;4.25;;
54745;SDS011;40640;48.130;11.356;2022-12-20T03:36:37;6.80;;;4.13;;
54745;SDS011;40640;48.130;11.356;2022-12-20T03:40:40;8.48;;;3.90;;
54745;SDS011;40640;48.130;11.356;2022-12-20T03:44:46;9.95;;;5.43;;
54745;SDS011;40640;48.130;11.356;2022-12-20T03:48:49;13.25;;;6.18;;
54745;SDS011;40640;48.130;11.356;2022-12-20T03:52:53;11.77;;;5.05;;
54745;SDS011;40640;48.130;11.356;2022-12-20T03:56:56;6.97;;;4.50;;
54745;SDS011;40640;48.130;11.356;2022-12-20T04:01:00;8.68;;;4.20;;
54745;SDS011;40640;48.130;11.356;2022-12-20T04:05:15;7.93;;;4.32;;
54745;SDS011;40640;48.130;11.356;2022-12-20T04:09:20;8.32;;;4.20;;
54745;SDS011;40640;48.130;11.356;2022-12-20T04:13:28;8.73;;;4.13;;
54745;SDS011;40640;48.130;11.356;2022-12-20T04:17:31;5.97;;;3.90;;
54745;SDS011;40640;48.130;11.356;2022-12-20T04:21:34;7.80;;;3.97;;
54745;SDS011;40640;48.130;11.356;2022-12-20T04:25:39;11.45;;;5.28;;
54745;SDS011;40640;48.130;11.356;2022-12-20T04:29:44;8.95;;;5.20;;
54745;SDS011;40640;48.130;11.356;2022-12-20T04:33:51;8.25;;;4.35;;
54745;SDS011;40640;48.130;11.356;2022-12-20T04:37:54;8.30;;;3.78;;
54745;SDS011;40640;48.130;11.356;2022-12-20T04:41:59;10.23;;;4.35;;
54745;SDS011;40640;48.130;11.356;2022-12-20T04:46:02;8.55;;;4.80;;
54745;SDS011;40640;48.130;11.356;2022-12-20T04:50:06;8.30;;;4.63;;
54745;SDS011;40640;48.130;11.356;2022-12-20T04:54:09;8.38;;;4.35;;
54745;SDS011;40640;48.130;11.356;2022-12-20T04:58:19;11.23;;;4.07;;
54745;SDS011;40640;48.130;11.356;2022-12-20T05:02:23;7.87;;;3.77;;
54745;SDS011;40640;48.130;11.356;2022-12-20T05:06:31;8.60;;;4.30;;
54745;SDS011;40640;48.130;11.356;2022-12-20T05:10:35;7.32;;;4.10;;
54745;SDS011;40640;48.130;11.356;2022-12-20T05:14:39;8.95;;;4.60;;
54745;SDS011;40640;48.130;11.356;2022-12-20T05:18:43;7.07;;;4.13;;
54745;SDS011;40640;48.130;11.356;2022-12-20T05:22:50;7.32;;;4.00;;
54745;SDS011;40640;48.130;11.356;2022-12-20T05:27:11;12.05;;;5.28;;
54745;SDS011;40640;48.130;11.356;2022-12-20T05:31:16;7.97;;;4.68;;
54745;SDS011;40640;48.130;11.356;2022-12-20T05:35:19;8.30;;;4.75;;
54745;SDS011;40640;48.130;11.356;2022-12-20T05:39:27;9.80;;;6.65;;
54745;SDS011;40640;48.130;11.356;2022-12-20T05:43:34;10.02;;;5.55;;
54745;SDS011;40640;48.130;11.356;2022-12-20T05:47:39;10.60;;;5.88;;
54745;SDS011;40640;48.130;11.356;2022-12-20T05:51:45;10.65;;;6.35;;
54745;SDS011;40640;48.130;11.356;2022-12-20T05:55:57;17.65;;;8.80;;
54745;SDS011;40640;48.130;11.356;2022-12-20T06:00:05;18.13;;;9.63;;
54745;SDS011;40640;48.130;11.356;2022-12-20T06:04:18;66.75;;;24.95;;
54745;SDS011;40640;48.130;11.356;2022-12-20T06:08:22;9.77;;;5.53;;
54745;SDS011;40640;48.130;11.356;2022-12-20T06:12:26;8.43;;;4.50;;
54745;SDS011;40640;48.130;11.356;2022-12-20T06:16:29;8.30;;;4.25;;
54745;SDS011;40640;48.130;11.356;2022-12-20T06:20:34;10.88;;;4.90;;
54745;SDS011;40640;48.130;11.356;2022-12-20T06:24:38;12.23;;;4.90;;
54745;SDS011;40640;48.130;11.356;2022-12-20T06:28:49;8.02;;;4.50;;
54745;SDS011;40640;48.130;11.356;2022-12-20T06:32:59;6.57;;;4.25;;
54745;SDS011;40640;48.130;11.356;2022-12-20T06:37:03;14.35;;;6.70;;
54745;SDS011;40640;48.130;11.356;2022-12-20T06:41:08;17.30;;;6.40;;
54745;SDS011;40640;48.130;11.356;2022-12-20T06:45:11;24.83;;;9.18;;
54745;SDS011;40640;48.130;11.356;2022-12-20T06:49:14;22.52;;;8.75;;
54745;SDS011;40640;48.130;11.356;2022-12-20T06:53:18;24.13;;;7.57;;
54745;SDS011;40640;48.130;11.356;2022-12-20T06:57:21;16.08;;;6.28;;
54745;SDS011;40640;48.130;11.356;2022-12-20T07:01:25;19.45;;;6.57;;
54745;SDS011;40640;48.130;11.356;2022-12-20T07:05:28;10.93;;;5.57;;
54745;SDS011;40640;48.130;11.356;2022-12-20T07:09:32;11.98;;;5.65;;
54745;SDS011;40640;48.130;11.356;2022-12-20T07:13:35;13.40;;;5.35;;
54745;SDS011;40640;48.130;11.356;2022-12-20T07:17:38;20.30;;;5.60;;
54745;SDS011;40640;48.130;11.356;2022-12-20T07:21:41;10.15;;;4.78;;
54745;SDS011;40640;48.130;11.356;2022-12-20T07:25:52;16.42;;;4.25;;
54745;SDS011;40640;48.130;11.356;2022-12-20T07:29:56;9.30;;;4.10;;
54745;SDS011;40640;48.130;11.356;2022-12-20T07:33:59;8.65;;;4.00;;
54745;SDS011;40640;48.130;11.356;2022-12-20T07:38:02;12.55;;;4.40;;
54745;SDS011;40640;48.130;11.356;2022-12-20T07:42:06;61.33;;;16.48;;
54745;SDS011;40640;48.130;11.356;2022-12-20T07:46:16;27.33;;;9.88;;
54745;SDS011;40640;48.130;11.356;2022-12-20T07:50:19;15.07;;;7.63;;
54745;SDS011;40640;48.130;11.356;2022-12-20T07:54:23;18.35;;;7.70;;
54745;SDS011;40640;48.130;11.356;2022-12-20T07:58:29;21.00;;;8.70;;
54745;SDS011;40640;48.130;11.356;2022-12-20T08:02:36;26.08;;;9.73;;
54745;SDS011;40640;48.130;11.356;2022-12-20T08:06:41;22.95;;;6.88;;
54745;SDS011;40640;48.130;11.356;2022-12-20T08:10:44;12.75;;;4.95;;
54745;SDS011;40640;48.130;11.356;2022-12-20T08:14:49;14.27;;;5.93;;
54745;SDS011;40640;48.130;11.356;2022-12-20T08:18:56;10.98;;;5.57;;
54745;SDS011;40640;48.130;11.356;2022-12-20T08:22:59;10.93;;;5.78;;
54745;SDS011;40640;48.130;11.356;2022-12-20T08:27:04;13.18;;;4.82;;
54745;SDS011;40640;48.130;11.356;2022-12-20T08:31:08;10.90;;;5.07;;
54745;SDS011;40640;48.130;11.356;2022-12-20T08:35:13;7.78;;;3.80;;
54745;SDS011;40640;48.130;11.356;2022-12-20T08:39:15;8.38;;;3.90;;
54745;SDS011;40640;48.130;11.356;2022-12-20T08:43:18;10.50;;;3.67;;
54745;SDS011;40640;48.130;11.356;2022-12-20T08:47:22;9.43;;;3.85;;
54745;SDS011;40640;48.130;11.356;2022-12-20T08:51:25;5.40;;;3.00;;
54745;SDS011;40640;48.130;11.356;2022-12-20T08:55:29;4.68;;;3.10;;
54745;SDS011;40640;48.130;11.356;2022-12-20T08:59:32;8.65;;;4.38;;
54745;SDS011;40640;48.130;11.356;2022-12-20T09:03:36;9.60;;;3.85;;
54745;SDS011;40640;48.130;11.356;2022-12-20T09:07:40;7.13;;;3.35;;
54745;SDS011;40640;48.130;11.356;2022-12-20T09:11:43;7.40;;;3.85;;
54745;SDS011;40640;48.130;11.356;2022-12-20T09:15:46;10.82;;;4.10;;
54745;SDS011;40640;48.130;11.356;2022-12-20T09:19:50;8.48;;;3.20;;
54745;SDS011;40640;48.130;11.356;2022-12-20T09:23:54;8.80;;;3.45;;
54745;SDS011;40640;48.130;11.356;2022-12-20T09:27:58;6.50;;;3.30;;
54745;SDS011;40640;48.130;11.356;2022-12-20T09:32:00;8.00;;;3.92;;
54745;SDS011;40640;48.130;11.356;2022-12-20T09:36:05;9.23;;;4.53;;
54745;SDS011;40640;48.130;11.356;2022-12-20T09:40:13;11.10;;;6.32;;
54745;SDS011;40640;48.130;11.356;2022-12-20T09:44:22;10.82;;;4.97;;
54745;SDS011;40640;48.130;11.356;2022-12-20T09:48:29;9.38;;;5.25;;
54745;SDS011;40640;48.130;11.356;2022-12-20T09:52:42;13.07;;;5.95;;
54745;SDS011;40640;48.130;11.356;2022-12-20T09:56:58;10.10;;;4.53;;
54745;SDS011;40640;48.130;11.356;2022-12-20T10:01:13;8.05;;;4.30;;
54745;SDS011;40640;48.130;11.356;2022-12-20T10:05:28;7.70;;;3.78;;
54745;SDS011;40640;48.130;11.356;2022-12-20T10:09:47;23.92;;;10.85;;
54745;SDS011;40640;48.130;11.356;2022-12-20T10:14:06;25.35;;;12.07;;
54745;SDS011;40640;48.130;11.356;2022-12-20T10:18:24;17.63;;;8.57;;
54745;SDS011;40640;48.130;11.356;2022-12-20T10:22:37;13.20;;;5.68;;
54745;SDS011;40640;48.130;11.356;2022-12-20T10:26:49;13.85;;;4.88;;
54745;SDS011;40640;48.130;11.356;2022-12-20T10:30:53;11.37;;;6.40;;
54745;SDS011;40640;48.130;11.356;2022-12-20T10:34:56;11.90;;;5.57;;
54745;SDS011;40640;48.130;11.356;2022-12-20T10:39:14;8.55;;;4.50;;
54745;SDS011;40640;48.130;11.356;2022-12-20T10:43:19;10.13;;;5.00;;
54745;SDS011;40640;48.130;11.356;2022-12-20T10:47:24;14.48;;;5.75;;
54745;SDS011;40640;48.130;11.356;2022-12-20T10:51:37;11.40;;;5.10;;
54745;SDS011;40640;48.130;11.356;2022-12-20T10:55:40;12.30;;;5.47;;
54745;SDS011;40640;48.130;11.356;2022-12-20T10:59:47;11.05;;;5.05;;
54745;SDS011;40640;48.130;11.356;2022-12-20T11:03:55;10.68;;;5.30;;
54745;SDS011;40640;48.130;11.356;2022-12-20T11:08:06;14.57;;;6.00;;
54745;SDS011;40640;48.130;11.356;2022-12-20T11:12:33;14.20;;;7.32;;
54745;SDS011;40640;48.130;11.356;2022-12-20T11:16:38;43.33;;;15.40;;
54745;SDS011;40640;48.130;11.356;2022-12-20T11:20:42;14.43;;;7.90;;
54745;SDS011;40640;48.130;11.356;2022-12-20T11:24:52;18.98;;;8.07;;
54745;SDS011;40640;48.130;11.356;2022-12-20T11:29:05;16.20;;;8.73;;
54745;SDS011;40640;48.130;11.356;2022-12-20T11:33:28;15.35;;;9.00;;
54745;SDS011;40640;48.130;11.356;2022-12-20T11:37:41;16.70;;;9.95;;
54745;SDS011;40640;48.130;11.356;2022-12-20T11:41:54;20.15;;;9.75;;
54745;SDS011;40640;48.130;11.356;2022-12-20T11:46:07;16.45;;;9.50;;
54745;SDS011;40640;48.130;11.356;2022-12-20T11:50:31;13.77;;;8.25;;
54745;SDS011;40640;48.130;11.356;2022-12-20T11:54:42;10.95;;;7.53;;
54745;SDS011;40640;48.130;11.356;2022-12-20T11:58:49;12.02;;;7.72;;
54745;SDS011;40640;48.130;11.356;2022-12-20T12:02:58;15.48;;;8.60;;
54745;SDS011;40640;48.130;11.356;2022-12-20T12:07:08;22.33;;;9.65;;
54745;SDS011;40640;48.130;11.356;2022-12-20T12:11:18;18.30;;;8.23;;
54745;SDS011;40640;48.130;11.356;2022-12-20T12:15:46;20.25;;;7.82;;
54745;SDS011;40640;48.130;11.356;2022-12-20T12:19:55;14.73;;;8.45;;
54745;SDS011;40640;48.130;11.356;2022-12-20T12:24:10;20.17;;;8.73;;
54745;SDS011;40640;48.130;11.356;2022-12-20T12:28:21;12.05;;;7.68;;
54745;SDS011;40640;48.130;11.356;2022-12-20T12:32:25;11.75;;;7.88;;
54745;SDS011;40640;48.130;11.356;2022-12-20T12:41:11;19.00;;;8.73;;
54745;SDS011;40640;48.130;11.356;2022-12-20T12:45:29;15.85;;;9.10;;
54745;SDS011;40640;48.130;11.356;2022-12-20T12:49:36;17.85;;;9.95;;
54745;SDS011;40640;48.130;11.356;2022-12-20T12:53:41;28.30;;;11.73;;
54745;SDS011;40640;48.130;11.356;2022-12-20T12:57:55;26.13;;;14.48;;
54745;SDS011;40640;48.130;11.356;2022-12-20T13:02:21;22.35;;;12.25;;
54745;SDS011;40640;48.130;11.356;2022-12-20T13:06:42;30.63;;;13.95;;
54745;SDS011;40640;48.130;11.356;2022-12-20T13:11:10;23.50;;;11.93;;
54745;SDS011;40640;48.130;11.356;2022-12-20T13:19:53;16.63;;;8.75;;
54745;SDS011;40640;48.130;11.356;2022-12-20T13:28:43;36.45;;;19.08;;
54745;SDS011;40640;48.130;11.356;2022-12-20T13:32:55;32.42;;;16.33;;
54745;SDS011;40640;48.130;11.356;2022-12-20T13:37:25;37.33;;;17.38;;
54745;SDS011;40640;48.130;11.356;2022-12-20T13:45:36;24.38;;;12.50;;
54745;SDS011;40640;48.130;11.356;2022-12-20T13:49:43;21.90;;;13.35;;
54745;SDS011;40640;48.130;11.356;2022-12-20T13:53:50;24.67;;;13.23;;
54745;SDS011;40640;48.130;11.356;2022-12-20T13:57:55;30.65;;;14.35;;
54745;SDS011;40640;48.130;11.356;2022-12-20T14:01:58;44.42;;;22.70;;
54745;SDS011;40640;48.130;11.356;2022-12-20T14:06:08;31.85;;;15.75;;
54745;SDS011;40640;48.130;11.356;2022-12-20T14:10:16;24.90;;;15.27;;
54745;SDS011;40640;48.130;11.356;2022-12-20T14:14:22;33.47;;;15.35;;
54745;SDS011;40640;48.130;11.356;2022-12-20T14:18:25;27.85;;;15.77;;
54745;SDS011;40640;48.130;11.356;2022-12-20T14:22:29;25.05;;;12.75;;
54745;SDS011;40640;48.130;11.356;2022-12-20T14:26:34;27.52;;;14.77;;
54745;SDS011;40640;48.130;11.356;2022-12-20T14:30:44;23.02;;;13.70;;
54745;SDS011;40640;48.130;11.356;2022-12-20T14:34:47;22.83;;;11.02;;
54745;SDS011;40640;48.130;11.356;2022-12-20T14:38:52;22.50;;;11.68;;
54745;SDS011;40640;48.130;11.356;2022-12-20T14:42:55;17.60;;;9.10;;
54745;SDS011;40640;48.130;11.356;2022-12-20T14:46:58;22.08;;;10.10;;
54745;SDS011;40640;48.130;11.356;2022-12-20T14:51:04;17.67;;;9.17;;
54745;SDS011;40640;48.130;11.356;2022-12-20T14:55:12;19.75;;;10.00;;
54745;SDS011;40640;48.130;11.356;2022-12-20T14:59:21;17.58;;;10.60;;
54745;SDS011;40640;48.130;11.356;2022-12-20T15:03:26;21.02;;;11.30;;
54745;SDS011;40640;48.130;11.356;2022-12-20T15:07:30;20.90;;;11.95;;
54745;SDS011;40640;48.130;11.356;2022-12-20T15:11:35;25.27;;;11.45;;
54745;SDS011;40640;48.130;11.356;2022-12-20T15:15:38;19.40;;;10.90;;
54745;SDS011;40640;48.130;11.356;2022-12-20T15:19:42;20.77;;;12.13;;
54745;SDS011;40640;48.130;11.356;2022-12-20T15:23:45;24.52;;;12.07;;
54745;SDS011;40640;48.130;11.356;2022-12-20T15:27:51;20.52;;;11.15;;
54745;SDS011;40640;48.130;11.356;2022-12-20T15:31:57;23.90;;;12.60;;
54745;SDS011;40640;48.130;11.356;2022-12-20T15:36:05;21.17;;;11.60;;
54745;SDS011;40640;48.130;11.356;2022-12-20T15:40:12;82.07;;;36.60;;
54745;SDS011;40640;48.130;11.356;2022-12-20T15:44:18;47.65;;;21.33;;
54745;SDS011;40640;48.130;11.356;2022-12-20T15:48:23;27.00;;;14.88;;
54745;SDS011;40640;48.130;11.356;2022-12-20T15:52:25;27.23;;;14.52;;
54745;SDS011;40640;48.130;11.356;2022-12-20T15:56:28;26.67;;;14.68;;
54745;SDS011;40640;48.130;11.356;2022-12-20T16:00:33;50.42;;;17.92;;
54745;SDS011;40640;48.130;11.356;2022-12-20T16:04:35;44.03;;;24.38;;
54745;SDS011;40640;48.130;11.356;2022-12-20T16:08:38;52.70;;;27.80;;
54745;SDS011;40640;48.130;11.356;2022-12-20T16:12:41;54.17;;;25.67;;
54745;SDS011;40640;48.130;11.356;2022-12-20T16:16:46;43.85;;;22.73;;
54745;SDS011;40640;48.130;11.356;2022-12-20T16:20:50;46.17;;;23.88;;
54745;SDS011;40640;48.130;11.356;2022-12-20T16:24:53;63.70;;;27.23;;
54745;SDS011;40640;48.130;11.356;2022-12-20T16:28:56;57.30;;;26.50;;
54745;SDS011;40640;48.130;11.356;2022-12-20T16:33:00;53.75;;;24.00;;
54745;SDS011;40640;48.130;11.356;2022-12-20T16:37:02;64.22;;;26.67;;
54745;SDS011;40640;48.130;11.356;2022-12-20T16:41:10;51.08;;;24.75;;
54745;SDS011;40640;48.130;11.356;2022-12-20T16:45:16;50.42;;;24.08;;
54745;SDS011;40640;48.130;11.356;2022-12-20T16:49:22;56.13;;;25.53;;
54745;SDS011;40640;48.130;11.356;2022-12-20T16:53:25;42.80;;;20.52;;
54745;SDS011;40640;48.130;11.356;2022-12-20T16:57:42;36.85;;;17.73;;
54745;SDS011;40640;48.130;11.356;2022-12-20T17:01:45;37.38;;;17.90;;
54745;SDS011;40640;48.130;11.356;2022-12-20T17:05:50;24.13;;;15.52;;
54745;SDS011;40640;48.130;11.356;2022-12-20T17:09:53;24.58;;;13.30;;
54745;SDS011;40640;48.130;11.356;2022-12-20T17:13:56;19.25;;;9.95;;
54745;SDS011;40640;48.130;11.356;2022-12-20T17:17:59;23.27;;;13.05;;
54745;SDS011;40640;48.130;11.356;2022-12-20T17:22:04;33.08;;;12.70;;
54745;SDS011;40640;48.130;11.356;2022-12-20T17:26:33;23.63;;;11.75;;
54745;SDS011;40640;48.130;11.356;2022-12-20T17:31:11;44.45;;;18.85;;
54745;SDS011;40640;48.130;11.356;2022-12-20T17:35:31;76.63;;;29.17;;
54745;SDS011;40640;48.130;11.356;2022-12-20T17:39:57;36.13;;;16.90;;
54745;SDS011;40640;48.130;11.356;2022-12-20T17:44:01;44.55;;;19.90;;
54745;SDS011;40640;48.130;11.356;2022-12-20T17:48:45;47.38;;;20.23;;
54745;SDS011;40640;48.130;11.356;2022-12-20T17:52:51;36.55;;;19.00;;
54745;SDS011;40640;48.130;11.356;2022-12-20T17:56:58;33.83;;;16.77;;
54745;SDS011;40640;48.130;11.356;2022-12-20T18:01:05;32.75;;;16.35;;
54745;SDS011;40640;48.130;11.356;2022-12-20T18:05:23;28.13;;;14.70;;
54745;SDS011;40640;48.130;11.356;2022-12-20T18:09:37;25.80;;;13.45;;
54745;SDS011;40640;48.130;11.356;2022-12-20T18:13:45;23.70;;;11.57;;
54745;SDS011;40640;48.130;11.356;2022-12-20T18:17:52;15.05;;;8.23;;
54745;SDS011;40640;48.130;11.356;2022-12-20T18:21:59;19.27;;;9.60;;
54745;SDS011;40640;48.130;11.356;2022-12-20T18:26:06;13.68;;;5.82;;
54745;SDS011;40640;48.130;11.356;2022-12-20T18:30:16;9.05;;;5.68;;
54745;SDS011;40640;48.130;11.356;2022-12-20T18:34:19;17.92;;;7.68;;
54745;SDS011;40640;48.130;11.356;2022-12-20T18:38:22;11.15;;;6.68;;
54745;SDS011;40640;48.130;11.356;2022-12-20T18:42:24;11.82;;;7.60;;
54745;SDS011;40640;48.130;11.356;2022-12-20T18:46:29;10.52;;;7.10;;
54745;SDS011;40640;48.130;11.356;2022-12-20T18:50:34;15.30;;;8.25;;
54745;SDS011;40640;48.130;11.356;2022-12-20T18:54:37;16.67;;;9.07;;
54745;SDS011;40640;48.130;11.356;2022-12-20T18:58:40;28.42;;;13.32;;
54745;SDS011;40640;48.130;11.356;2022-12-20T19:02:45;17.35;;;9.38;;
54745;SDS011;40640;48.130;11.356;2022-12-20T19:06:48;14.23;;;8.05;;
54745;SDS011;40640;48.130;11.356;2022-12-20T19:10:51;17.58;;;7.57;;
54745;SDS011;40640;48.130;11.356;2022-12-20T19:14:54;18.30;;;6.60;;
54745;SDS011;40640;48.130;11.356;2022-12-20T19:18:58;14.10;;;6.95;;
54745;SDS011;40640;48.130;11.356;2022-12-20T19:23:01;14.57;;;8.02;;
54745;SDS011;40640;48.130;11.356;2022-12-20T19:27:05;14.98;;;7.40;;
54745;SDS011;40640;48.130;11.356;2022-12-20T19:31:10;23.83;;;11.23;;
54745;SDS011;40640;48.130;11.356;2022-12-20T19:35:23;21.75;;;11.68;;
54745;SDS011;40640;48.130;11.356;2022-12-20T19:39:46;20.95;;;11.40;;
54745;SDS011;40640;48.130;11.356;2022-12-20T19:43:49;24.88;;;11.93;;
54745;SDS011;40640;48.130;11.356;2022-12-20T19:47:53;27.42;;;14.15;;
54745;SDS011;40640;48.130;11.356;2022-12-20T19:51:57;16.63;;;9.18;;
54745;SDS011;40640;48.130;11.356;2022-12-20T19:56:00;14.55;;;9.35;;
54745;SDS011;40640;48.130;11.356;2022-12-20T20:00:03;13.98;;;7.45;;
54745;SDS011;40640;48.130;11.356;2022-12-20T20:04:11;15.00;;;6.72;;
54745;SDS011;40640;48.130;11.356;2022-12-20T20:08:16;12.68;;;7.05;;
54745;SDS011;40640;48.130;11.356;2022-12-20T20:12:19;17.40;;;10.38;;
54745;SDS011;40640;48.130;11.356;2022-12-20T20:16:21;17.08;;;9.32;;
54745;SDS011;40640;48.130;11.356;2022-12-20T20:20:25;19.05;;;10.77;;
54745;SDS011;40640;48.130;11.356;2022-12-20T20:24:29;15.65;;;8.05;;
54745;SDS011;40640;48.130;11.356;2022-12-20T20:28:32;8.98;;;5.53;;
54745;SDS011;40640;48.130;11.356;2022-12-20T20:32:44;9.40;;;5.22;;
54745;SDS011;40640;48.130;11.356;2022-12-20T20:36:47;10.05;;;5.90;;
54745;SDS011;40640;48.130;11.356;2022-12-20T20:40:52;8.98;;;6.53;;
54745;SDS011;40640;48.130;11.356;2022-12-20T20:44:55;9.27;;;5.70;;
54745;SDS011;40640;48.130;11.356;2022-12-20T20:48:58;11.35;;;6.65;;
54745;SDS011;40640;48.130;11.356;2022-12-20T20:53:01;25.23;;;9.85;;
54745;SDS011;40640;48.130;11.356;2022-12-20T20:57:05;12.10;;;5.95;;
54745;SDS011;40640;48.130;11.356;2022-12-20T21:01:09;8.80;;;4.85;;
54745;SDS011;40640;48.130;11.356;2022-12-20T21:05:12;10.82;;;6.55;;
54745;SDS011;40640;48.130;11.356;2022-12-20T21:09:35;10.38;;;5.57;;
54745;SDS011;40640;48.130;11.356;2022-12-20T21:13:39;7.32;;;4.40;;
54745;SDS011;40640;48.130;11.356;2022-12-20T21:17:42;8.32;;;4.32;;
54745;SDS011;40640;48.130;11.356;2022-12-20T21:21:44;10.10;;;4.25;;
54745;SDS011;40640;48.130;11.356;2022-12-20T21:25:53;15.50;;;5.10;;
54745;SDS011;40640;48.130;11.356;2022-12-20T21:29:58;9.98;;;6.07;;
54745;SDS011;40640;48.130;11.356;2022-12-20T21:34:01;22.40;;;9.75;;
54745;SDS011;40640;48.130;11.356;2022-12-20T21:38:03;22.58;;;9.32;;
54745;SDS011;40640;48.130;11.356;2022-12-20T21:42:06;15.80;;;7.30;;
54745;SDS011;40640;48.130;11.356;2022-12-20T21:46:10;15.57;;;5.88;;
54745;SDS011;40640;48.130;11.356;2022-12-20T21:50:13;12.15;;;6.78;;
54745;SDS011;40640;48.130;11.356;2022-12-20T21:54:16;13.70;;;7.78;;
54745;SDS011;40640;48.130;11.356;2022-12-20T21:58:19;13.13;;;6.72;;
54745;SDS011;40640;48.130;11.356;2022-12-20T22:02:23;10.45;;;5.82;;
54745;SDS011;40640;48.130;11.356;2022-12-20T22:06:26;8.07;;;4.50;;
54745;SDS011;40640;48.130;11.356;2022-12-20T22:10:30;8.13;;;4.55;;
54745;SDS011;40640;48.130;11.356;2022-12-20T22:14:32;9.02;;;4.40;;
54745;SDS011;40640;48.130;11.356;2022-12-20T22:18:37;8.02;;;4.70;;
54745;SDS011;40640;48.130;11.356;2022-12-20T22:22:41;8.67;;;4.47;;
54745;SDS011;40640;48.130;11.356;2022-12-20T22:26:43;9.95;;;4.68;;
54745;SDS011;40640;48.130;11.356;2022-12-20T22:30:46;10.13;;;5.32;;
54745;SDS011;40640;48.130;11.356;2022-12-20T22:34:50;8.75;;;5.57;;
54745;SDS011;40640;48.130;11.356;2022-12-20T22:38:53;8.63;;;4.80;;
54745;SDS011;40640;48.130;11.356;2022-12-20T22:42:57;6.50;;;4.45;;
54745;SDS011;40640;48.130;11.356;2022-12-20T22:47:00;8.13;;;5.10;;
54745;SDS011;40640;48.130;11.356;2022-12-20T22:51:04;8.15;;;4.50;;
54745;SDS011;40640;48.130;11.356;2022-12-20T22:55:09;8.45;;;5.03;;
54745;SDS011;40640;48.130;11.356;2022-12-20T22:59:13;10.65;;;5.45;;
54745;SDS011;40640;48.130;11.356;2022-12-20T23:03:15;12.05;;;5.45;;
54745;SDS011;40640;48.130;11.356;2022-12-20T23:07:20;12.60;;;6.38;;
54745;SDS011;40640;48.130;11.356;2022-12-20T23:11:24;7.95;;;4.80;;
54745;SDS011;40640;48.130;11.356;2022-12-20T23:15:46;10.10;;;4.93;;
54745;SDS011;40640;48.130;11.356;2022-12-20T23:19:49;7.53;;;4.57;;
54745;SDS011;40640;48.130;11.356;2022-12-20T23:24:11;12.75;;;4.88;;
54745;SDS011;40640;48.130;11.356;2022-12-20T23:28:14;7.78;;;4.65;;
54745;SDS011;40640;48.130;11.356;2022-12-20T23:32:17;9.05;;;4.32;;
54745;SDS011;40640;48.130;11.356;2022-12-20T23:36:20;8.48;;;4.30;;
54745;SDS011;40640;48.130;11.356;2022-12-20T23:40:24;11.70;;;5.03;;
54745;SDS011;40640;48.130;11.356;2022-12-20T23:44:27;8.18;;;4.00;;
54745;SDS011;40640;48.130;11.356;2022-12-20T23:48:30;8.63;;;4.75;;
54745;SDS011;40640;48.130;11.356;2022-12-20T23:52:33;10.60;;;5.05;;
54745;SDS011;40640;48.130;11.356;2022-12-20T23:56:37;6.78;;;4.50;;
